Time;durP1;ratioP1;P1;durP2;ratioP2;P2;SDS_P1;SDS_P2;PMS_P1;PMS_P2;Temp;Humidity;BMP_temperature;BMP_pressure;BME280_temperature;BME280_humidity;BME280_pressure;Samples;Min_cycle;Max_cycle;Signal;HPM_P1;HPM_P2
2023/10/11 00:00:24;;;;;;;5.88;3.67;;;;;;;21.61;56.29;100779.22;12735028;22;97076;-79
2023/10/11 00:05:35;;;;;;;3.75;2.90;;;;;;;21.50;56.83;100788.94;12734375;22;97117;-79
2023/10/11 00:10:47;;;;;;;5.38;3.30;;;;;;;21.33;58.23;100786.69;12732935;22;97098;-79
2023/10/11 00:15:54;;;;;;;5.10;3.65;;;;;;;21.17;58.43;100779.94;12734442;22;96633;-79
2023/10/11 00:20:58;;;;;;;7.22;3.88;;;;;;;21.09;58.19;100783.13;12734690;22;96634;-79
2023/10/11 00:26:06;;;;;;;6.07;3.65;;;;;;;20.97;59.17;100786.72;12734622;22;96843;-79
2023/10/11 00:31:16;;;;;;;4.35;3.20;;;;;;;20.94;58.92;100781.59;12734724;22;96691;-79
2023/10/11 00:36:29;;;;;;;5.32;3.10;;;;;;;20.90;58.53;100787.28;12734708;22;97545;-79
2023/10/11 00:41:39;;;;;;;5.72;3.47;;;;;;;20.79;59.00;100785.38;12734448;22;96730;-79
2023/10/11 00:46:56;;;;;;;5.18;3.17;;;;;;;20.63;60.15;100786.63;12735637;22;96724;-79
2023/10/11 00:52:04;;;;;;;4.53;2.97;;;;;;;20.53;60.24;100781.09;12734634;22;96623;-80
2023/10/11 00:57:11;;;;;;;6.45;3.30;;;;;;;20.49;60.59;100776.06;12734497;22;96588;-79
2023/10/11 01:02:16;;;;;;;6.45;3.40;;;;;;;20.44;60.20;100775.56;12733265;22;96529;-79
2023/10/11 01:07:19;;;;;;;3.25;2.40;;;;;;;20.87;55.90;100782.16;12734437;22;97085;-79
2023/10/11 01:12:25;;;;;;;6.10;3.00;;;;;;;20.72;57.28;100776.13;12733653;22;97094;-79
2023/10/11 01:17:31;;;;;;;;;;;;;;;20.48;60.47;100782.41;12734772;22;97314;-80
2023/10/11 01:22:36;;;;;;;6.13;3.75;;;;;;;20.47;59.25;100778.84;12734917;22;96862;-79
2023/10/11 01:27:41;;;;;;;;;;;;;;;20.51;59.73;100776.81;12734035;22;96887;-79
2023/10/11 01:32:44;;;;;;;4.72;2.65;;;;;;;20.56;58.73;100774.66;12734291;22;97182;-79
2023/10/11 01:37:54;;;;;;;5.38;3.00;;;;;;;20.48;58.65;100772.53;12735149;22;96974;-79
2023/10/11 01:42:58;;;;;;;3.60;2.75;;;;;;;20.64;57.34;100766.94;12733667;22;97014;-79
2023/10/11 01:48:03;;;;;;;4.18;2.75;;;;;;;20.62;56.73;100767.03;12733939;22;97521;-79
2023/10/11 01:53:08;;;;;;;4.38;2.90;;;;;;;20.63;56.02;100759.88;12732341;22;96696;-79
2023/10/11 01:58:13;;;;;;;4.93;3.13;;;;;;;20.51;56.78;100758.09;12733670;22;96683;-79
2023/10/11 02:03:17;;;;;;;4.85;2.92;;;;;;;20.34;58.18;100760.16;12733565;22;97415;-79
2023/10/11 02:08:25;;;;;;;;;;;;;;;20.12;61.00;100751.94;12733918;22;97187;-79
2023/10/11 02:13:28;;;;;;;3.88;2.95;;;;;;;20.00;60.21;100751.94;12733010;22;97674;-79
2023/10/11 02:18:33;;;;;;;4.30;3.17;;;;;;;20.07;59.48;100756.75;12732989;22;96628;-80
2023/10/11 02:23:39;;;;;;;3.97;2.97;;;;;;;20.10;58.64;100748.53;12733322;22;96971;-79
2023/10/11 02:28:46;;;;;;;3.63;2.55;;;;;;;20.15;58.08;100754.38;12734487;22;96961;-79
2023/10/11 02:33:51;;;;;;;4.32;2.78;;;;;;;20.07;57.96;100746.06;12733045;22;96903;-79
2023/10/11 02:38:57;;;;;;;4.10;3.10;;;;;;;20.14;57.95;100750.03;12735290;22;97056;-82
2023/10/11 02:44:03;;;;;;;4.70;2.50;;;;;;;20.12;57.45;100745.72;12734292;22;97280;-81
2023/10/11 02:49:18;;;;;;;4.07;2.55;;;;;;;20.09;57.01;100738.81;12735743;22;96792;-81
2023/10/11 02:54:33;;;;;;;4.32;2.70;;;;;;;20.03;56.91;100739.22;12735715;22;97546;-81
2023/10/11 02:59:37;;;;;;;5.82;3.42;;;;;;;19.81;58.57;100744.38;12735795;22;96929;-81
2023/10/11 03:04:41;;;;;;;4.20;3.08;;;;;;;19.70;59.19;100748.75;12735552;22;97296;-81
2023/10/11 03:09:48;;;;;;;5.88;3.17;;;;;;;19.64;59.00;100750.03;12735112;22;96778;-81
2023/10/11 03:14:55;;;;;;;5.05;3.00;;;;;;;19.60;59.06;100751.19;12735040;22;96730;-81
2023/10/11 03:19:58;;;;;;;4.80;3.15;;;;;;;19.69;57.60;100752.38;12736087;22;96653;-81
2023/10/11 03:25:12;;;;;;;3.08;2.50;;;;;;;19.77;57.01;100758.06;12734942;22;97365;-81
2023/10/11 03:30:21;;;;;;;5.40;3.00;;;;;;;19.63;57.71;100752.81;12735457;22;97008;-80
2023/10/11 03:35:26;;;;;;;4.00;2.75;;;;;;;19.53;58.22;100749.91;12733543;22;96832;-80
2023/10/11 03:40:35;;;;;;;;;;;;;;;19.21;61.24;100754.75;12735547;22;96597;-80
2023/10/11 03:45:49;;;;;;;4.35;2.97;;;;;;;19.09;60.73;100754.69;12734849;22;96578;-80
2023/10/11 03:50:54;;;;;;;4.45;3.13;;;;;;;18.93;62.30;100754.88;12734024;22;96703;-80
2023/10/11 03:55:59;;;;;;;4.85;3.33;;;;;;;18.93;63.09;100762.00;12734923;22;97077;-81
2023/10/11 04:01:06;;;;;;;;;;;;;;;18.83;64.71;100758.22;12735447;22;97357;-80
2023/10/11 04:06:15;;;;;;;6.35;3.47;;;;;;;18.80;63.53;100769.09;12734991;22;96670;-81
2023/10/11 04:11:30;;;;;;;4.80;3.20;;;;;;;18.78;62.99;100766.50;12735412;22;96615;-81
2023/10/11 04:16:34;;;;;;;7.20;3.22;;;;;;;18.86;62.24;100774.03;12734526;22;96837;-81
2023/10/11 04:21:53;;;;;;;4.70;2.88;;;;;;;18.88;61.55;100769.44;12734261;22;97037;-81
2023/10/11 04:27:45;;;;;;;3.53;2.58;;;;;;;18.79;62.44;100776.25;12733460;22;96590;-81
2023/10/11 04:32:41;;;;;;;4.07;3.05;;;;;;;18.87;61.52;100770.41;12734287;22;97456;-81
2023/10/11 04:37:48;;;;;;;3.95;2.88;;;;;;;19.07;59.93;100769.94;12734253;22;96679;-81
2023/10/11 04:43:05;;;;;;;3.15;2.30;;;;;;;19.21;58.04;100767.22;12734310;22;96632;-81
2023/10/11 04:48:08;;;;;;;3.95;2.60;;;;;;;19.32;56.93;100764.66;12734595;22;96967;-81
2023/10/11 04:53:17;;;;;;;3.47;2.50;;;;;;;19.10;58.29;100767.06;12733910;22;97158;-81
2023/10/11 05:04:33;;;;;;;2.40;2.10;;;;;;;19.38;54.13;100766.94;10414145;28;96858;-80
2023/10/11 05:09:52;;;;;;;4.63;2.33;;;;;;;19.49;54.42;100772.44;10409602;27;97348;-80
2023/10/11 05:15:07;;;;;;;5.57;2.22;;;;;;;19.50;54.14;100776.81;10412629;27;96672;-80
2023/10/11 05:26:34;;;;;;;4.18;2.47;;;;;;;19.26;56.92;100786.44;10411484;27;97351;-80
2023/10/11 05:31:44;;;;;;;3.80;2.88;;;;;;;19.27;56.76;100788.16;10411571;27;96806;-80
2023/10/11 05:53:14;;;;;;;6.97;3.58;;;;;;;19.09;56.99;100787.56;10263474;28;97239;-80
2023/10/11 05:58:19;;;;;;;6.82;3.50;;;;;;;18.88;57.63;100786.31;10308443;28;97501;-80
2023/10/11 06:03:28;;;;;;;5.97;3.25;;;;;;;18.65;58.41;100794.06;10369507;28;97356;-80
2023/10/11 06:08:38;;;;;;;11.18;5.40;;;;;;;18.83;56.78;100793.75;10346579;28;97331;-80
2023/10/11 06:13:43;;;;;;;4.38;2.65;;;;;;;18.89;55.76;100801.34;10310816;28;97545;-80
2023/10/11 06:19:15;;;;;;;3.92;2.63;;;;;;;18.99;54.23;100801.63;10300894;28;97257;-80
2023/10/11 06:24:24;;;;;;;3.95;2.40;;;;;;;19.03;53.88;100805.78;10300492;28;97031;-80
2023/10/11 06:29:29;;;;;;;4.55;2.60;;;;;;;19.00;53.99;100796.19;10300056;28;96660;-80
2023/10/11 06:34:33;;;;;;;3.22;2.45;;;;;;;18.95;53.78;100795.63;10327962;28;96872;-80
2023/10/11 06:45:05;;;;;;;3.30;2.25;;;;;;;19.00;53.66;100814.00;10298563;28;97290;-80
2023/10/11 06:50:14;;;;;;;3.30;2.13;;;;;;;19.09;53.33;100814.22;10299673;28;96773;-80
2023/10/11 06:55:25;;;;;;;3.67;2.50;;;;;;;19.22;53.19;100814.28;10298590;28;96971;-80
2023/10/11 07:00:29;;;;;;;4.03;2.25;;;;;;;19.22;53.07;100824.97;10299305;28;96815;-80
2023/10/11 07:05:34;;;;;;;4.50;2.27;;;;;;;19.26;52.64;100823.81;10299814;28;96863;-80
2023/10/11 07:10:57;;;;;;;4.78;2.25;;;;;;;19.21;53.04;100820.59;10298366;28;99002;-80
2023/10/11 07:16:08;;;;;;;4.13;2.35;;;;;;;19.40;52.43;100828.22;10298640;28;96778;-80
2023/10/11 07:21:15;;;;;;;3.35;2.58;;;;;;;19.40;51.98;100826.44;10298170;28;97111;-80
2023/10/11 07:31:53;;;;;;;3.22;2.20;;;;;;;19.67;51.25;100835.25;10289260;28;97420;-80
2023/10/11 07:36:56;;;;;;;5.55;2.00;;;;;;;20.64;50.06;100841.81;10297960;28;97179;-80
2023/10/11 07:42:08;;;;;;;3.50;2.22;;;;;;;20.77;49.19;100848.88;10298310;28;97060;-80
2023/10/11 07:47:21;;;;;;;3.42;2.30;;;;;;;21.71;47.86;100852.56;10297485;28;96718;-81
2023/10/11 07:52:27;;;;;;;3.55;2.20;;;;;;;22.02;47.58;100854.66;10297344;28;96821;-80
2023/10/11 07:57:32;;;;;;;3.97;2.40;;;;;;;22.61;44.32;100859.69;10297974;28;96861;-80
2023/10/11 08:02:41;;;;;;;4.13;2.22;;;;;;;23.78;44.33;100860.81;10296692;28;96653;-81
2023/10/11 08:07:46;;;;;;;4.25;2.50;;;;;;;24.71;42.26;100868.75;10296391;28;96643;-80
2023/10/11 08:12:51;;;;;;;;;;;;;;;25.38;39.76;100871.69;10296924;28;96748;-81
2023/10/11 08:17:56;;;;;;;3.33;2.20;;;;;;;25.65;39.91;100877.22;10297140;28;96798;-81
2023/10/11 08:23:01;;;;;;;3.15;2.40;;;;;;;26.09;39.20;100883.91;10296401;28;96714;-81
2023/10/11 08:28:12;;;;;;;4.28;2.10;;;;;;;26.49;38.28;100876.47;10296319;28;96684;-81
2023/10/11 08:33:18;;;;;;;5.00;2.28;;;;;;;26.55;36.83;100881.28;10322287;28;96712;-81
2023/10/11 08:38:24;;;;;;;4.25;2.35;;;;;;;27.06;36.38;100872.69;10307627;28;96766;-81
2023/10/11 08:43:29;;;;;;;3.53;2.05;;;;;;;27.71;35.21;100875.97;10295925;28;96697;-81
2023/10/11 08:48:38;;;;;;;3.30;2.03;;;;;;;27.31;34.63;100877.34;10295652;28;96790;-81
2023/10/11 08:53:46;;;;;;;3.40;2.30;;;;;;;27.43;33.79;100873.44;10295685;28;97345;-81
2023/10/11 08:58:53;;;;;;;3.28;2.35;;;;;;;25.36;36.56;100871.81;10295635;28;96733;-81
2023/10/11 09:04:08;;;;;;;3.75;2.35;;;;;;;24.57;37.95;100864.59;10295354;28;96648;-81
2023/10/11 09:09:16;;;;;;;3.58;2.35;;;;;;;24.26;38.94;100865.53;10254454;28;96725;-80
2023/10/11 09:14:23;;;;;;;3.22;2.17;;;;;;;24.28;38.81;100868.13;10254510;28;96838;-80
2023/10/11 09:19:28;;;;;;;3.35;2.50;;;;;;;24.40;38.71;100861.66;10255082;28;96852;-81
2023/10/11 09:24:39;;;;;;;3.13;2.20;;;;;;;25.12;37.92;100855.16;10283813;28;96880;-81
2023/10/11 09:29:51;;;;;;;3.72;2.08;;;;;;;26.58;35.67;100862.06;10294628;28;98589;-81
2023/10/11 09:34:56;;;;;;;5.32;2.40;;;;;;;27.92;33.47;100856.69;10294547;28;96634;-81
2023/10/11 09:40:08;;;;;;;3.35;2.15;;;;;;;28.84;32.09;100844.28;10294728;28;96814;-81
2023/10/11 09:45:17;;;;;;;3.72;2.28;;;;;;;29.17;31.36;100841.53;10294099;28;96709;-81
2023/10/11 09:50:28;;;;;;;5.18;2.28;;;;;;;29.67;30.78;100844.19;10300030;28;96732;-82
2023/10/11 09:55:38;;;;;;;3.25;2.10;;;;;;;28.99;30.84;100842.66;10305104;28;96780;-82
2023/10/11 10:00:54;;;;;;;3.33;2.60;;;;;;;29.63;29.92;100847.41;10342223;28;96706;-82
2023/10/11 10:06:10;;;;;;;3.92;2.40;;;;;;;29.05;29.98;100842.03;10325002;28;97132;-82
2023/10/11 10:11:19;;;;;;;4.88;2.40;;;;;;;29.79;29.17;100845.56;10300775;28;97131;-82
2023/10/11 10:17:03;;;;;;;4.53;2.42;;;;;;;30.30;27.90;100849.78;10336020;28;97390;-81
2023/10/11 10:22:16;;;;;;;3.08;2.00;;;;;;;31.02;28.09;100849.59;10341099;28;96944;-82
2023/10/11 10:27:41;;;;;;;3.38;2.40;;;;;;;31.87;26.57;100834.94;10330767;28;96969;-82
2023/10/11 10:33:22;;;;;;;4.00;2.50;;;;;;;32.76;25.68;100832.13;10300851;28;97446;-82
2023/10/11 10:44:34;;;;;;;3.70;1.92;;;;;;;33.65;25.27;100833.66;10298939;28;96733;-82
2023/10/11 10:49:47;;;;;;;4.25;2.13;;;;;;;33.53;24.49;100822.44;10328861;28;97103;-82
2023/10/11 10:55:01;;;;;;;3.90;2.40;;;;;;;33.85;24.08;100824.59;10339965;28;96697;-82
2023/10/11 11:00:20;;;;;;;2.58;2.00;;;;;;;34.23;23.66;100816.97;10340042;28;96890;-82
2023/10/11 11:05:29;;;;;;;3.42;2.00;;;;;;;34.87;23.04;100810.19;10309785;28;97132;-82
2023/10/11 11:10:37;;;;;;;1.95;1.50;;;;;;;34.66;23.48;100812.22;10298723;28;96859;-83
2023/10/11 11:15:44;;;;;;;2.38;1.88;;;;;;;34.47;22.90;100792.75;10298212;28;96786;-82
2023/10/11 11:20:51;;;;;;;3.15;2.00;;;;;;;34.80;22.78;100795.69;10299496;28;96858;-82
2023/10/11 11:26:15;;;;;;;3.30;1.95;;;;;;;34.73;21.83;100793.94;10290470;28;97048;-82
2023/10/11 11:31:51;;;;;;;4.05;2.10;;;;;;;35.13;21.90;100780.22;10291726;28;96704;-82
2023/10/11 11:37:00;;;;;;;3.25;2.13;;;;;;;35.43;21.63;100778.84;10298853;28;97006;-82
2023/10/11 11:42:09;;;;;;;2.00;1.50;;;;;;;35.65;21.89;100765.84;10252942;28;96682;-82
2023/10/11 11:47:21;;;;;;;2.33;1.75;;;;;;;34.59;22.28;100768.44;10256927;28;96633;-83
2023/10/11 11:52:33;;;;;;;2.28;1.88;;;;;;;35.39;21.57;100761.13;10295441;28;97622;-82
2023/10/11 11:57:41;;;;;;;3.45;1.90;;;;;;;35.49;21.46;100753.41;10326214;28;97010;-83
2023/10/11 12:02:45;;;;;;;2.80;1.60;;;;;;;36.03;21.27;100747.69;10322992;28;97322;-82
2023/10/11 12:07:52;;;;;;;2.47;1.63;;;;;;;36.09;20.54;100738.63;10297122;28;97333;-82
2023/10/11 12:13:05;;;;;;;2.75;1.88;;;;;;;37.00;19.92;100736.66;10311621;28;96684;-82
2023/10/11 12:18:11;;;;;;;3.67;2.10;;;;;;;37.76;19.97;100733.56;10338094;28;97353;-82
2023/10/11 12:23:18;;;;;;;4.00;2.00;;;;;;;37.25;20.75;100726.56;10336690;28;96707;-82
2023/10/11 12:28:25;;;;;;;2.25;1.70;;;;;;;37.42;20.09;100714.00;10297152;28;97354;-82
2023/10/11 12:33:30;;;;;;;2.92;2.08;;;;;;;37.57;19.83;100701.59;10296004;28;96799;-82
2023/10/11 12:38:43;;;;;;;3.28;1.73;;;;;;;38.41;19.31;100699.09;10296288;28;96654;-82
2023/10/11 12:43:46;;;;;;;;;;;;;;;39.29;18.56;100694.72;10295945;28;97153;-82
2023/10/11 12:48:54;;;;;;;2.10;1.65;;;;;;;38.97;19.65;100681.41;10327158;28;96657;-82
2023/10/11 12:54:00;;;;;;;3.30;1.75;;;;;;;38.04;19.78;100680.88;10336279;28;96759;-82
2023/10/11 12:59:10;;;;;;;2.67;2.00;;;;;;;39.38;18.60;100673.16;10333231;28;96666;-82
2023/10/11 13:04:17;;;;;;;2.75;1.65;;;;;;;39.59;18.70;100661.56;10287169;28;96741;-82
2023/10/11 13:09:27;;;;;;;2.03;1.60;;;;;;;39.17;19.18;100648.94;10295851;28;97541;-82
2023/10/11 13:14:32;;;;;;;2.92;1.95;;;;;;;38.95;18.91;100647.78;10295634;28;96943;-82
2023/10/11 13:19:37;;;;;;;2.78;1.60;;;;;;;40.08;17.76;100640.97;10295719;28;96645;-82
2023/10/11 13:24:42;;;;;;;2.95;1.95;;;;;;;38.79;18.11;100627.28;10299849;28;97593;-82
2023/10/11 13:29:47;;;;;;;2.72;2.03;;;;;;;38.95;18.47;100617.50;10301912;28;96707;-82
2023/10/11 13:35:05;;;;;;;4.15;2.20;;;;;;;39.34;19.07;100616.88;10302251;28;97014;-82
2023/10/11 13:40:11;;;;;;;4.28;2.30;;;;;;;39.64;18.84;100614.88;10302173;28;96948;-83
2023/10/11 13:45:17;;;;;;;3.72;2.30;;;;;;;39.01;18.84;100611.06;10299794;28;96743;-82
2023/10/11 13:50:27;;;;;;;2.60;1.98;;;;;;;39.27;19.00;100610.66;10300276;28;96651;-82
2023/10/11 13:55:39;;;;;;;3.15;2.10;;;;;;;39.07;19.59;100610.09;10319195;28;96869;-82
2023/10/11 14:06:20;;;;;;;2.80;2.30;;;;;;;37.91;20.52;100600.47;10275773;28;97021;-83
2023/10/11 14:11:26;;;;;;;4.97;2.75;;;;;;;38.12;21.03;100597.25;10299761;28;97463;-82
2023/10/11 14:16:31;;;;;;;3.47;2.47;;;;;;;37.55;21.85;100604.03;10298890;28;96668;-82
2023/10/11 14:21:36;;;;;;;3.25;2.65;;;;;;;37.36;22.12;100600.41;10290866;28;97262;-82
2023/10/11 14:26:44;;;;;;;4.18;2.92;;;;;;;36.87;22.91;100608.59;10258134;28;97410;-81
2023/10/11 14:31:47;;;;;;;3.50;2.80;;;;;;;36.60;22.54;100605.16;10297040;28;96657;-82
2023/10/11 14:36:50;;;;;;;4.18;3.35;;;;;;;36.91;22.72;100601.63;10298184;28;96849;-82
2023/10/11 14:41:57;;;;;;;4.68;3.60;;;;;;;36.74;22.90;100601.25;10298481;28;96666;-82
2023/10/11 14:47:01;;;;;;;4.70;3.60;;;;;;;36.74;23.39;100614.16;10321997;28;97416;-82
2023/10/11 14:52:07;;;;;;;4.07;3.33;;;;;;;36.62;23.53;100605.78;10303497;28;97463;-82
2023/10/11 14:57:13;;;;;;;4.30;3.17;;;;;;;36.47;23.91;100613.47;10296474;28;97173;-81
2023/10/11 15:02:19;;;;;;;3.97;3.25;;;;;;;36.28;23.79;100600.66;10297963;28;97251;-82
2023/10/11 15:07:22;;;;;;;4.45;3.08;;;;;;;36.08;23.82;100596.34;10297043;28;97589;-82
2023/10/11 15:12:27;;;;;;;4.90;3.50;;;;;;;35.85;24.08;100596.81;10296790;28;96803;-82
2023/10/11 15:17:31;;;;;;;5.00;3.20;;;;;;;35.85;23.98;100594.06;10296669;28;97106;-81
2023/10/11 15:22:34;;;;;;;5.63;3.22;;;;;;;35.10;25.17;100588.25;10333546;28;96755;-81
2023/10/11 15:27:39;;;;;;;4.72;3.40;;;;;;;34.96;25.09;100589.34;10337798;28;96855;-81
2023/10/11 15:32:44;;;;;;;4.40;3.38;;;;;;;34.77;25.38;100584.66;10338126;28;97329;-81
2023/10/11 15:37:53;;;;;;;4.78;3.47;;;;;;;34.09;25.66;100585.69;10313369;28;96782;-81
2023/10/11 15:43:02;;;;;;;4.85;3.30;;;;;;;33.70;26.95;100580.00;10295985;28;97218;-82
2023/10/11 15:48:06;;;;;;;4.47;3.47;;;;;;;33.10;27.51;100577.91;10293988;28;96745;-82
2023/10/11 15:53:10;;;;;;;4.82;3.40;;;;;;;32.96;27.93;100581.53;10304016;28;96925;-81
2023/10/11 15:58:17;;;;;;;4.95;3.47;;;;;;;32.32;28.60;100580.63;10336632;28;97633;-81
2023/10/11 16:03:23;;;;;;;5.47;3.65;;;;;;;32.14;29.46;100575.59;10336622;28;96588;-81
2023/10/11 16:08:29;;;;;;;5.25;3.83;;;;;;;32.11;29.19;100584.16;10298539;28;96751;-80
2023/10/11 16:13:37;;;;;;;4.18;3.20;;;;;;;31.85;29.74;100569.34;10331986;28;97019;-81
2023/10/11 16:18:44;;;;;;;4.20;3.25;;;;;;;31.45;29.46;100573.38;10296140;28;96900;-82
2023/10/11 16:23:51;;;;;;;4.03;2.60;;;;;;;31.29;30.32;100578.97;10295405;28;96861;-80
2023/10/11 16:28:56;;;;;;;4.68;3.22;;;;;;;31.04;30.55;100582.94;10295687;28;97271;-80
2023/10/11 16:34:01;;;;;;;4.57;2.67;;;;;;;30.87;31.05;100598.53;10294890;28;96777;-80
2023/10/11 16:39:05;;;;;;;4.05;2.85;;;;;;;30.86;31.04;100591.41;10293300;28;96740;-81
2023/10/11 16:44:16;;;;;;;4.22;3.33;;;;;;;30.40;31.57;100611.44;10303830;28;98124;-80
2023/10/11 16:49:19;;;;;;;5.18;3.17;;;;;;;30.19;32.30;100605.78;10335683;28;97978;-80
2023/10/11 16:54:23;;;;;;;4.95;3.72;;;;;;;29.79;33.40;100614.91;10303131;28;96717;-80
2023/10/11 16:59:28;;;;;;;6.03;3.75;;;;;;;29.57;34.22;100620.22;10293659;28;97442;-80
2023/10/11 17:04:31;;;;;;;5.57;4.00;;;;;;;29.15;35.23;100612.31;10294377;28;96746;-81
2023/10/11 17:09:35;;;;;;;4.93;3.60;;;;;;;28.93;35.62;100623.84;10293919;28;97276;-80
2023/10/11 17:14:40;;;;;;;6.03;4.00;;;;;;;28.75;36.13;100629.38;10294378;28;97049;-81
2023/10/11 17:19:43;;;;;;;5.78;3.42;;;;;;;28.51;36.59;100634.75;10277302;28;96785;-81
2023/10/11 17:24:48;;;;;;;5.03;3.25;;;;;;;28.43;36.50;100642.00;10293245;28;97235;-80
2023/10/11 17:29:54;;;;;;;4.80;3.67;;;;;;;28.37;36.88;100650.78;10292601;28;96970;-80
2023/10/11 17:34:57;;;;;;;5.45;3.50;;;;;;;28.18;37.57;100654.59;10300191;28;97096;-80
2023/10/11 17:40:00;;;;;;;5.22;3.53;;;;;;;27.99;37.96;100663.81;10334003;28;96919;-80
2023/10/11 17:45:06;;;;;;;4.65;3.55;;;;;;;27.90;38.62;100662.06;10333602;28;97380;-79
2023/10/11 17:50:13;;;;;;;5.10;3.55;;;;;;;27.78;38.43;100668.75;10307265;28;97944;-79
2023/10/11 17:55:17;;;;;;;5.18;3.38;;;;;;;27.56;38.49;100673.81;10321304;28;97211;-79
2023/10/11 18:00:23;;;;;;;4.38;3.72;;;;;;;27.47;38.94;100678.34;10333424;28;96894;-80
2023/10/11 18:05:30;;;;;;;4.35;3.42;;;;;;;27.26;39.25;100679.66;10320147;28;97704;-80
2023/10/11 18:15:38;;;;;;;5.70;3.28;;;;;;;26.66;40.67;100689.38;10255904;28;96930;-80
2023/10/11 18:20:41;;;;;;;4.80;3.22;;;;;;;26.44;41.17;100701.44;10257283;28;96563;-80
2023/10/11 18:25:47;;;;;;;6.68;3.60;;;;;;;26.18;41.73;100708.50;10258951;28;96886;-80
2023/10/11 18:30:54;;;;;;;5.90;3.60;;;;;;;26.14;41.89;100722.44;10257855;28;96762;-80
2023/10/11 18:35:57;;;;;;;5.25;3.55;;;;;;;26.05;42.01;100721.50;10257473;28;96804;-79
2023/10/11 18:41:05;;;;;;;3.38;2.95;;;;;;;25.91;42.17;100730.06;10258067;28;97218;-80
2023/10/11 18:46:13;;;;;;;4.43;3.40;;;;;;;25.82;42.41;100745.28;10258218;28;96697;-79
2023/10/11 18:51:19;;;;;;;5.25;3.42;;;;;;;25.78;42.29;100743.84;10257528;28;96720;-79
2023/10/11 18:56:24;;;;;;;6.30;3.75;;;;;;;25.66;42.37;100753.06;10257980;28;96720;-80
2023/10/11 19:01:31;;;;;;;4.80;3.38;;;;;;;25.59;42.43;100751.94;10276243;28;96788;-80
2023/10/11 19:06:34;;;;;;;4.90;3.30;;;;;;;25.30;43.25;100750.25;10274903;28;96756;-79
2023/10/11 19:11:38;;;;;;;6.13;3.63;;;;;;;25.12;43.37;100746.59;10255188;28;97262;-79
2023/10/11 19:16:43;;;;;;;4.22;3.00;;;;;;;24.99;43.74;100757.63;10256942;28;96897;-79
2023/10/11 19:21:47;;;;;;;6.25;3.80;;;;;;;25.22;42.87;100769.84;10256042;28;96685;-79
2023/10/11 19:26:51;;;;;;;4.28;3.13;;;;;;;24.84;43.73;100767.91;10256083;28;96698;-79
2023/10/11 19:31:58;;;;;;;6.00;3.60;;;;;;;24.79;43.94;100767.47;10255956;28;96893;-79
2023/10/11 19:37:01;;;;;;;5.45;3.20;;;;;;;24.63;44.11;100772.56;10256182;28;96711;-79
2023/10/11 19:42:05;;;;;;;4.50;3.23;;;;;;;24.53;44.26;100771.66;10255303;28;97576;-79
2023/10/11 19:47:09;;;;;;;4.88;3.30;;;;;;;24.51;44.36;100780.88;10256143;28;96716;-79
2023/10/11 19:52:16;;;;;;;6.22;3.25;;;;;;;24.44;44.33;100782.41;10272633;28;96911;-79
2023/10/11 19:57:23;;;;;;;4.25;3.20;;;;;;;24.22;44.71;100783.38;10295115;28;96835;-79
2023/10/11 20:02:28;;;;;;;4.05;2.95;;;;;;;24.37;44.65;100776.72;10294269;28;96739;-79
2023/10/11 20:07:32;;;;;;;6.72;3.25;;;;;;;24.28;44.89;100772.13;10266031;28;96971;-80
2023/10/11 20:12:39;;;;;;;5.05;3.35;;;;;;;24.39;44.64;100779.25;10254189;28;97253;-80
2023/10/11 20:17:45;;;;;;;4.97;3.45;;;;;;;24.46;44.42;100773.19;10254582;28;96853;-79
2023/10/11 20:22:50;;;;;;;5.18;3.70;;;;;;;24.39;44.76;100782.78;10254690;28;96731;-80
2023/10/11 20:27:53;;;;;;;4.72;3.17;;;;;;;24.31;44.97;100781.75;10254977;28;96670;-80
2023/10/11 20:33:00;;;;;;;4.30;3.27;;;;;;;24.28;45.01;100782.91;10253596;28;97330;-79
2023/10/11 20:38:08;;;;;;;5.20;3.85;;;;;;;24.30;45.74;100783.63;10254810;28;97163;-79
2023/10/11 20:43:11;;;;;;;5.35;3.63;;;;;;;24.48;45.42;100776.59;10270569;28;96930;-80
2023/10/11 20:48:21;;;;;;;7.05;4.20;;;;;;;24.47;45.70;100768.66;10294574;28;96715;-79
2023/10/11 20:53:24;;;;;;;4.93;3.67;;;;;;;24.35;46.07;100770.63;10259321;28;97328;-80
2023/10/11 20:58:28;;;;;;;4.53;3.75;;;;;;;24.19;46.80;100761.28;10253926;28;96793;-79
2023/10/11 21:03:35;;;;;;;5.55;3.88;;;;;;;24.09;47.52;100755.88;10252923;28;96726;-79
2023/10/11 21:08:39;;;;;;;7.57;3.95;;;;;;;24.13;47.16;100746.56;10252738;28;97003;-79
2023/10/11 21:13:43;;;;;;;7.25;4.03;;;;;;;24.28;47.01;100744.38;10251914;28;97058;-80
2023/10/11 21:18:48;;;;;;;6.13;4.13;;;;;;;23.73;48.58;100742.94;10253518;28;96973;-80
2023/10/11 21:23:54;;;;;;;5.45;3.47;;;;;;;23.78;48.11;100759.53;10252800;28;96814;-79
2023/10/11 21:28:58;;;;;;;4.38;3.58;;;;;;;23.88;47.77;100749.69;10253345;28;97001;-79
2023/10/11 21:34:02;;;;;;;4.85;3.50;;;;;;;23.81;48.25;100758.41;10253034;28;96743;-80
2023/10/11 21:39:07;;;;;;;4.95;3.38;;;;;;;23.78;48.15;100758.66;10252213;28;97286;-79
2023/10/11 21:44:11;;;;;;;5.47;3.60;;;;;;;23.64;48.52;100762.53;10253974;28;97070;-79
2023/10/11 21:49:16;;;;;;;5.13;3.80;;;;;;;23.59;48.85;100756.72;10260893;28;97168;-79
2023/10/11 21:54:20;;;;;;;4.55;3.60;;;;;;;23.48;49.02;100765.66;10300142;28;97198;-79
2023/10/11 21:59:25;;;;;;;4.43;3.50;;;;;;;23.50;49.41;100762.84;10299486;28;97142;-79
2023/10/11 22:04:29;;;;;;;4.88;3.08;;;;;;;23.35;50.01;100754.25;10264427;28;97384;-79
2023/10/11 22:09:33;;;;;;;4.57;3.67;;;;;;;23.62;49.08;100760.00;10259268;28;96824;-79
2023/10/11 22:14:38;;;;;;;4.90;3.40;;;;;;;23.56;49.26;100747.06;10258107;28;96754;-79
2023/10/11 22:19:45;;;;;;;5.90;3.15;;;;;;;23.36;49.85;100752.41;10259205;28;97137;-79
2023/10/11 22:24:49;;;;;;;5.15;3.20;;;;;;;23.31;50.41;100743.88;10258548;28;96731;-80
2023/10/11 22:29:53;;;;;;;;;;;;;;;23.16;52.14;100751.41;10258783;28;97422;-81
2023/10/11 22:34:58;;;;;;;4.53;3.37;;;;;;;23.18;50.61;100744.06;10256794;28;96775;-80
2023/10/11 22:40:02;;;;;;;4.60;3.35;;;;;;;23.12;50.69;100749.09;10257593;28;98242;-79
2023/10/11 22:45:09;;;;;;;6.47;3.60;;;;;;;23.03;51.54;100749.84;10217018;28;96986;-79
2023/10/11 22:50:18;;;;;;;5.97;3.78;;;;;;;22.93;51.74;100755.16;10217188;28;97019;-79
2023/10/11 22:55:22;;;;;;;3.90;3.33;;;;;;;22.85;52.09;100751.38;10216583;28;97119;-79
2023/10/11 23:00:30;;;;;;;6.60;3.73;;;;;;;22.58;53.06;100752.63;10271345;28;97318;-79
2023/10/11 23:05:36;;;;;;;5.25;3.60;;;;;;;22.66;52.58;100749.34;10269887;28;96566;-79
2023/10/11 23:10:47;;;;;;;5.82;3.58;;;;;;;22.93;51.70;100754.28;10256425;28;96763;-79
2023/10/11 23:15:54;;;;;;;5.05;3.70;;;;;;;22.84;52.04;100742.47;10257223;28;97010;-79
2023/10/11 23:21:00;;;;;;;5.82;3.72;;;;;;;22.98;52.05;100744.00;10256117;28;96841;-79
2023/10/11 23:26:05;;;;;;;5.32;3.38;;;;;;;22.85;52.32;100725.41;10255423;28;97454;-79
2023/10/11 23:31:09;;;;;;;;;;;;;;;22.63;53.32;100729.94;10256527;28;96811;-79
2023/10/11 23:36:15;;;;;;;4.95;3.38;;;;;;;22.64;52.64;100725.28;10256022;28;96624;-79
2023/10/11 23:41:34;;;;;;;5.93;3.63;;;;;;;22.59;53.36;100722.13;10255667;28;96976;-79
2023/10/11 23:46:39;;;;;;;5.50;3.65;;;;;;;22.51;53.16;100716.56;10255595;28;97405;-80
2023/10/11 23:51:50;;;;;;;5.80;3.97;;;;;;;22.59;53.29;100707.88;10267236;28;97259;-79
2023/10/11 23:56:58;;;;;;;5.13;3.35;;;;;;;22.59;53.43;100713.25;10254989;28;96801;-79
